Time;durP1;ratioP1;P1;durP2;ratioP2;P2;SDS_P1;SDS_P2;PMS_P1;PMS_P2;Temp;Humidity;BMP_temperature;BMP_pressure;BME280_temperature;BME280_humidity;BME280_pressure;Samples;Min_cycle;Max_cycle;Signal;HPM_P1;HPM_P2
2022/06/01 00:01:29;;;;;;;45.40;31.33;;;;;;;10.25;100.00;101318.16;5038889;28;20036;-45
2022/06/01 00:03:55;;;;;;;48.35;32.30;;;;;;;10.27;100.00;101323.38;5039603;28;20016;-44
2022/06/01 00:06:20;;;;;;;44.15;30.55;;;;;;;10.22;100.00;101315.78;5040228;28;20100;-44
2022/06/01 00:08:46;;;;;;;47.70;30.83;;;;;;;10.26;100.00;101319.00;5027058;28;20109;-44
2022/06/01 00:11:11;;;;;;;48.97;31.73;;;;;;;10.27;100.00;101316.19;5040688;28;20024;-43
2022/06/01 00:13:37;;;;;;;47.22;32.58;;;;;;;10.21;100.00;101318.59;5039724;28;20120;-43
2022/06/01 00:16:03;;;;;;;53.25;32.58;;;;;;;10.19;100.00;101321.41;5054375;28;20421;-44
2022/06/01 00:18:28;;;;;;;52.55;32.95;;;;;;;10.17;100.00;101335.91;5039441;28;20083;-44
2022/06/01 00:20:54;;;;;;;48.20;32.13;;;;;;;10.18;100.00;101327.75;5039275;28;20032;-45
2022/06/01 00:23:24;;;;;;;48.60;31.08;;;;;;;10.15;100.00;101329.84;5039315;28;20323;-42
2022/06/01 00:25:50;;;;;;;50.90;33.37;;;;;;;10.12;100.00;101328.34;5039691;28;20087;-45
2022/06/01 00:28:15;;;;;;;48.42;31.25;;;;;;;10.09;100.00;101329.47;5039363;28;20395;-44
2022/06/01 00:30:41;;;;;;;48.83;32.35;;;;;;;10.05;100.00;101325.41;5039238;28;20048;-46
2022/06/01 00:33:06;;;;;;;51.05;33.63;;;;;;;10.07;100.00;101325.28;5009981;28;20435;-48
2022/06/01 00:35:32;;;;;;;48.75;32.25;;;;;;;10.02;100.00;101322.19;5039005;28;20425;-45
2022/06/01 00:37:57;;;;;;;51.53;33.35;;;;;;;10.03;100.00;101331.88;5039571;28;20136;-45
2022/06/01 00:40:26;;;;;;;53.30;33.35;;;;;;;9.99;100.00;101325.97;5039354;28;20028;-43
2022/06/01 00:42:53;;;;;;;52.78;33.70;;;;;;;9.97;100.00;101333.31;5027373;28;20097;-45
2022/06/01 00:45:22;;;;;;;51.92;33.33;;;;;;;9.98;100.00;101315.44;5037996;28;20239;-43
2022/06/01 00:47:49;;;;;;;50.17;33.05;;;;;;;9.98;100.00;101331.47;5036807;28;20033;-45
2022/06/01 00:50:20;;;;;;;52.08;32.65;;;;;;;9.95;100.00;101324.59;5039190;28;20013;-47
2022/06/01 00:52:51;;;;;;;;;;;;;;;10.03;100.00;101321.19;5039949;28;20424;-45
2022/06/01 00:55:40;;;;;;;52.55;31.98;;;;;;;10.01;100.00;101321.38;5038440;28;20006;-44
2022/06/01 00:58:30;;;;;;;46.95;31.27;;;;;;;10.03;100.00;101324.72;5038162;28;20036;-45
2022/06/01 01:00:56;;;;;;;49.08;32.67;;;;;;;9.98;100.00;101320.78;5038069;28;20164;-45
2022/06/01 01:03:23;;;;;;;51.67;33.28;;;;;;;9.93;100.00;101329.25;5038424;28;20484;-47
2022/06/01 01:06:08;;;;;;;51.50;34.17;;;;;;;9.90;100.00;101324.19;5038327;28;20025;-45
2022/06/01 01:08:34;;;;;;;50.75;32.22;;;;;;;9.85;100.00;101316.63;5038054;28;20143;-44
2022/06/01 01:10:59;;;;;;;53.65;33.90;;;;;;;9.85;100.00;101321.13;5038587;28;20108;-44
2022/06/01 01:13:24;;;;;;;54.60;33.08;;;;;;;9.83;100.00;101323.94;5038912;28;20184;-47
2022/06/01 01:15:52;;;;;;;51.85;33.55;;;;;;;9.83;100.00;101323.09;5037729;28;20282;-44
2022/06/01 01:18:25;;;;;;;51.35;33.80;;;;;;;9.82;100.00;101324.06;5037795;28;20519;-45
2022/06/01 01:21:32;;;;;;;57.58;35.00;;;;;;;9.82;100.00;101319.56;5038632;28;20120;-47
2022/06/01 01:24:27;;;;;;;55.53;34.60;;;;;;;9.83;100.00;101323.09;5037640;28;20521;-44
2022/06/01 01:26:53;;;;;;;55.33;33.53;;;;;;;9.81;100.00;101317.03;4996704;28;20128;-48
2022/06/01 01:29:36;;;;;;;52.50;32.55;;;;;;;9.88;100.00;101326.19;5038270;28;20484;-46
2022/06/01 01:32:01;;;;;;;55.33;34.33;;;;;;;9.96;100.00;101328.09;5028904;28;20025;-47
2022/06/01 01:34:28;;;;;;;58.70;34.63;;;;;;;10.01;100.00;101320.50;5037602;28;20107;-48
2022/06/01 01:36:57;;;;;;;57.03;35.40;;;;;;;10.03;100.00;101313.19;5038124;28;20089;-43
2022/06/01 01:39:25;;;;;;;55.42;34.22;;;;;;;10.03;100.00;101316.72;5037415;28;20213;-44
2022/06/01 01:41:53;;;;;;;54.60;32.88;;;;;;;10.09;100.00;101320.63;5031759;28;20498;-43
2022/06/01 01:44:25;;;;;;;57.92;34.05;;;;;;;10.08;100.00;101314.44;5037213;28;20040;-44
2022/06/01 01:46:51;;;;;;;54.47;34.42;;;;;;;10.16;100.00;101321.72;5036412;28;20268;-43
2022/06/01 01:49:21;;;;;;;53.22;33.90;;;;;;;10.20;100.00;101328.44;5037625;28;20071;-44
2022/06/01 01:51:47;;;;;;;56.75;35.33;;;;;;;10.21;100.00;101315.94;5037850;28;20055;-43
2022/06/01 01:54:42;;;;;;;62.78;35.97;;;;;;;10.19;100.00;101316.09;5038071;28;20405;-43
2022/06/01 01:57:14;;;;;;;60.90;36.63;;;;;;;10.07;100.00;101309.25;5037926;28;20028;-46
2022/06/01 01:59:59;;;;;;;58.47;36.00;;;;;;;10.04;100.00;101321.03;5038089;28;20395;-45
2022/06/01 02:02:35;;;;;;;61.28;36.45;;;;;;;10.00;100.00;101322.34;5037145;28;20050;-47
2022/06/01 02:08:02;;;;;;;66.22;39.53;;;;;;;9.88;100.00;101320.84;5014118;28;20094;-43
2022/06/01 02:13:14;;;;;;;62.15;37.92;;;;;;;9.87;100.00;101325.31;5036527;28;20032;-44
2022/06/01 02:15:43;;;;;;;71.22;40.28;;;;;;;9.92;100.00;101324.88;5035262;28;20035;-48
2022/06/01 02:18:22;;;;;;;64.57;38.83;;;;;;;9.96;100.00;101323.63;5036665;28;20476;-48
2022/06/01 02:21:06;;;;;;;67.47;40.33;;;;;;;9.98;100.00;101324.31;5030992;28;20505;-45
2022/06/01 02:23:32;;;;;;;66.95;39.78;;;;;;;9.99;100.00;101317.16;5016235;28;20018;-43
2022/06/01 02:25:59;;;;;;;69.70;39.95;;;;;;;9.99;100.00;101320.66;5015476;28;20361;-45
2022/06/01 02:28:25;;;;;;;63.75;38.22;;;;;;;9.97;100.00;101322.63;5016962;28;20045;-47
2022/06/01 02:30:52;;;;;;;76.30;41.80;;;;;;;9.96;100.00;101328.09;5016612;28;20306;-44
2022/06/01 02:33:22;;;;;;;65.80;39.72;;;;;;;9.92;100.00;101321.38;5020127;28;20467;-46
2022/06/01 02:35:51;;;;;;;65.43;39.70;;;;;;;9.89;100.00;101315.38;5035395;28;20059;-43
2022/06/01 02:38:33;;;;;;;66.97;40.17;;;;;;;9.84;100.00;101312.28;5036323;28;20076;-45
2022/06/01 02:41:01;;;;;;;69.68;39.63;;;;;;;9.78;100.00;101320.03;5033745;28;20475;-44
2022/06/01 02:43:26;;;;;;;68.47;40.15;;;;;;;9.74;100.00;101313.28;5033737;28;20013;-47
2022/06/01 02:45:52;;;;;;;69.85;39.15;;;;;;;9.71;100.00;101312.59;5036555;28;20043;-45
2022/06/01 02:48:17;;;;;;;66.18;38.65;;;;;;;9.68;100.00;101317.38;5036067;28;20041;-46
2022/06/01 02:50:43;;;;;;;64.80;39.50;;;;;;;9.59;100.00;101312.88;5019053;28;20392;-47
2022/06/01 02:53:08;;;;;;;74.13;40.35;;;;;;;9.47;100.00;101310.41;5016249;28;20522;-49
2022/06/01 02:55:34;;;;;;;72.45;40.67;;;;;;;9.46;100.00;101308.69;5015084;28;20044;-46
2022/06/01 02:58:00;;;;;;;70.18;40.42;;;;;;;9.43;100.00;101303.66;5016441;28;20130;-44
2022/06/01 03:00:40;;;;;;;73.60;41.67;;;;;;;9.39;100.00;101312.94;5016368;28;20022;-49
2022/06/01 03:03:08;;;;;;;74.78;41.55;;;;;;;9.37;100.00;101312.22;5015610;28;20021;-46
2022/06/01 03:05:37;;;;;;;75.15;40.75;;;;;;;9.32;100.00;101309.97;5016816;28;20103;-44
2022/06/01 03:08:02;;;;;;;82.10;43.22;;;;;;;9.30;100.00;101309.28;5016130;28;20098;-44
2022/06/01 03:10:28;;;;;;;72.93;41.22;;;;;;;9.29;100.00;101307.59;5016703;28;20136;-45
2022/06/01 03:12:54;;;;;;;69.32;39.63;;;;;;;9.27;100.00;101306.91;5016841;28;20025;-46
2022/06/01 03:15:21;;;;;;;77.13;41.38;;;;;;;9.26;100.00;101313.19;5015822;28;20467;-47
2022/06/01 03:17:47;;;;;;;70.43;40.17;;;;;;;9.22;100.00;101313.66;5016378;28;20025;-47
2022/06/01 03:20:17;;;;;;;75.53;42.63;;;;;;;9.16;100.00;101312.38;5016837;28;20040;-44
2022/06/01 03:22:43;;;;;;;76.07;41.47;;;;;;;9.11;100.00;101318.13;5016721;28;20032;-45
2022/06/01 03:25:13;;;;;;;72.65;42.17;;;;;;;9.09;100.00;101319.25;5015650;28;20087;-44
2022/06/01 03:27:38;;;;;;;77.57;41.42;;;;;;;9.07;100.00;101308.72;5016538;28;20088;-46
2022/06/01 03:30:06;;;;;;;72.35;41.90;;;;;;;9.04;100.00;101314.31;5015523;28;20080;-45
2022/06/01 03:32:32;;;;;;;81.63;41.55;;;;;;;8.99;100.00;101305.91;5016031;28;20024;-45
2022/06/01 03:34:57;;;;;;;73.68;41.55;;;;;;;8.92;100.00;101310.94;5016042;28;20053;-44
2022/06/01 03:37:23;;;;;;;76.15;41.90;;;;;;;8.93;100.00;101317.97;5015449;28;20387;-44
2022/06/01 03:39:48;;;;;;;85.30;43.03;;;;;;;8.92;100.00;101323.44;5016080;28;20414;-46
2022/06/01 03:42:13;;;;;;;72.60;41.28;;;;;;;8.93;100.00;101317.97;5016722;28;20506;-44
2022/06/01 03:47:23;;;;;;;74.47;41.13;;;;;;;8.91;100.00;101327.94;5015609;28;20095;-48
2022/06/01 03:49:48;;;;;;;77.00;42.10;;;;;;;8.91;100.00;101330.59;5015744;28;20247;-47
2022/06/01 03:52:14;;;;;;;74.13;42.00;;;;;;;8.95;100.00;101334.66;5016847;28;20037;-44
2022/06/01 03:54:39;;;;;;;76.05;41.90;;;;;;;8.97;100.00;101331.84;5016178;28;20053;-45
2022/06/01 03:57:07;;;;;;;81.32;41.47;;;;;;;9.00;100.00;101328.09;5016634;28;20059;-45
2022/06/01 03:59:33;;;;;;;84.97;40.45;;;;;;;8.99;100.00;101326.38;5003079;28;20033;-44
2022/06/01 04:02:03;;;;;;;77.65;41.40;;;;;;;9.00;100.00;101334.25;5021825;28;20039;-44
2022/06/01 04:04:29;;;;;;;81.22;40.95;;;;;;;9.03;100.00;101335.78;5029833;28;20457;-43
2022/06/01 04:06:54;;;;;;;76.78;41.42;;;;;;;9.04;100.00;101334.81;5020348;28;20029;-47
2022/06/01 04:09:20;;;;;;;81.57;40.53;;;;;;;9.05;100.00;101329.34;5033620;28;20021;-47
2022/06/01 04:11:45;;;;;;;82.03;40.95;;;;;;;9.02;100.00;101334.94;5012550;28;20284;-43
2022/06/01 04:14:10;;;;;;;77.05;40.67;;;;;;;9.02;100.00;101334.09;5014047;28;20068;-49
2022/06/01 04:16:36;;;;;;;77.90;40.33;;;;;;;9.03;100.00;101335.78;5032919;28;20513;-45
2022/06/01 04:19:01;;;;;;;82.43;42.38;;;;;;;9.06;100.00;101340.84;5018926;28;20121;-47
2022/06/01 04:21:30;;;;;;;72.72;39.63;;;;;;;9.03;100.00;101333.97;5019003;28;20104;-43
2022/06/01 04:24:00;;;;;;;68.88;38.15;;;;;;;9.04;100.00;101335.63;5019519;28;20463;-44
2022/06/01 04:26:26;;;;;;;66.72;37.95;;;;;;;9.06;100.00;101335.50;5019976;28;20126;-46
2022/06/01 04:28:51;;;;;;;76.40;37.55;;;;;;;9.07;100.00;101337.19;5022308;28;21178;-48
2022/06/01 04:31:16;;;;;;;71.00;36.97;;;;;;;9.08;100.00;101331.72;5037731;28;20051;-46
2022/06/01 04:33:43;;;;;;;68.63;36.53;;;;;;;9.07;100.00;101334.53;5034567;28;20140;-45
2022/06/01 04:36:08;;;;;;;72.25;36.70;;;;;;;9.12;100.00;101338.44;5018445;28;20219;-44
2022/06/01 04:38:34;;;;;;;74.63;36.95;;;;;;;9.19;100.00;101340.56;5018923;28;20593;-46
2022/06/01 04:40:59;;;;;;;60.95;35.08;;;;;;;9.23;100.00;101344.63;5019286;28;20090;-47
2022/06/01 04:43:24;;;;;;;66.28;36.33;;;;;;;9.22;100.00;101337.63;5015892;28;20021;-45
2022/06/01 04:45:51;;;;;;;67.70;35.38;;;;;;;9.25;100.00;101338.19;5017885;28;20021;-44
2022/06/01 04:48:17;;;;;;;69.88;35.90;;;;;;;9.27;100.00;101346.88;5017669;28;20056;-44
2022/06/01 04:50:42;;;;;;;63.05;34.05;;;;;;;9.28;100.00;101335.25;5017201;28;20535;-45
2022/06/01 04:53:16;;;;;;;67.03;34.15;;;;;;;9.29;100.00;101336.09;5016001;28;20124;-43
2022/06/01 04:55:44;;;;;;;69.72;35.40;;;;;;;9.32;100.00;101339.31;5015138;28;20029;-43
2022/06/01 04:58:10;;;;;;;67.15;34.42;;;;;;;9.34;100.00;101336.50;5015608;28;20038;-46
2022/06/01 05:00:36;;;;;;;65.57;34.95;;;;;;;9.36;100.00;101333.69;5018347;28;20025;-48
2022/06/01 05:03:02;;;;;;;74.28;35.65;;;;;;;9.37;100.00;101338.03;5018125;28;20124;-47
2022/06/01 05:05:28;;;;;;;66.43;35.03;;;;;;;9.38;100.00;101343.22;5018995;28;20033;-46
2022/06/01 05:07:53;;;;;;;73.63;35.80;;;;;;;9.38;100.00;101340.56;5018917;28;20044;-43
2022/06/01 05:10:21;;;;;;;67.18;34.10;;;;;;;9.39;100.00;101336.91;5018240;28;20513;-46
2022/06/01 05:12:46;;;;;;;67.10;34.75;;;;;;;9.40;100.00;101341.28;5017445;28;20314;-46
2022/06/01 05:15:12;;;;;;;72.22;34.28;;;;;;;9.41;100.00;101342.94;5014392;28;20057;-43
2022/06/01 05:17:37;;;;;;;70.25;35.13;;;;;;;9.45;100.00;101344.38;5019364;28;20061;-47
2022/06/01 05:20:03;;;;;;;69.82;35.67;;;;;;;9.48;100.00;101340.56;5017618;28;20088;-49
2022/06/01 05:22:28;;;;;;;66.60;33.78;;;;;;;9.50;100.00;101339.44;5012260;28;20049;-45
2022/06/01 05:24:54;;;;;;;63.40;33.42;;;;;;;9.48;100.00;101341.38;5017096;28;20092;-45
2022/06/01 05:27:19;;;;;;;72.20;34.30;;;;;;;9.48;100.00;101345.88;5018059;28;20612;-45
2022/06/01 05:29:44;;;;;;;67.72;34.92;;;;;;;9.55;100.00;101343.50;5018075;28;20302;-45
2022/06/01 05:32:10;;;;;;;69.68;36.17;;;;;;;9.58;100.00;101351.22;5017929;28;20037;-45
2022/06/01 05:34:36;;;;;;;72.10;35.00;;;;;;;9.64;100.00;101348.81;5018222;28;20442;-44
2022/06/01 05:37:01;;;;;;;67.20;34.60;;;;;;;9.73;100.00;101340.97;5017909;28;20023;-42
2022/06/01 05:39:27;;;;;;;71.80;34.47;;;;;;;9.80;100.00;101342.06;5017526;28;20032;-43
2022/06/01 05:41:52;;;;;;;70.03;34.17;;;;;;;9.86;100.00;101341.47;5016628;28;20099;-49
2022/06/01 05:44:18;;;;;;;71.28;32.88;;;;;;;9.93;100.00;101345.25;5018310;28;20454;-42
2022/06/01 05:46:43;;;;;;;67.35;32.88;;;;;;;10.02;100.00;101352.38;5028004;28;20717;-43
2022/06/01 05:49:09;;;;;;;67.07;33.10;;;;;;;10.11;100.00;101352.50;5031415;28;20036;-44
2022/06/01 05:51:37;;;;;;;71.63;31.92;;;;;;;10.19;100.00;101357.97;5035454;28;20055;-43
2022/06/01 05:54:03;;;;;;;69.57;32.10;;;;;;;10.26;100.00;101351.88;5033693;28;20173;-44
2022/06/01 05:56:28;;;;;;;66.90;30.55;;;;;;;10.35;100.00;101355.56;5035320;28;20056;-46
2022/06/01 05:58:53;;;;;;;64.03;31.05;;;;;;;10.40;100.00;101366.63;5034511;28;20746;-46
2022/06/01 06:01:22;;;;;;;70.05;29.95;;;;;;;10.44;100.00;101365.31;5019566;28;20074;-43
2022/06/01 06:03:49;;;;;;;64.60;30.08;;;;;;;10.56;100.00;101362.47;5018366;28;20216;-45
2022/06/01 06:06:17;;;;;;;62.03;31.48;;;;;;;10.67;100.00;101367.59;5014406;28;20427;-46
2022/06/01 06:08:49;;;;;;;63.35;30.52;;;;;;;10.79;100.00;101362.91;5017722;28;20021;-45
2022/06/01 06:11:16;;;;;;;58.35;28.30;;;;;;;10.94;100.00;101373.91;5017645;28;20430;-44
2022/06/01 06:13:41;;;;;;;64.97;29.65;;;;;;;11.03;100.00;101364.97;5018206;28;20017;-44
2022/06/01 06:16:08;;;;;;;56.72;27.33;;;;;;;11.15;100.00;101371.81;5017110;28;20044;-41
2022/06/01 06:18:34;;;;;;;55.55;27.88;;;;;;;11.28;100.00;101375.94;5017364;28;20013;-43
2022/06/01 06:20:59;;;;;;;54.35;27.38;;;;;;;11.41;100.00;101371.03;5017167;28;20492;-46
2022/06/01 06:23:25;;;;;;;59.38;27.40;;;;;;;11.50;100.00;101375.47;5017163;28;20499;-43
2022/06/01 06:25:50;;;;;;;55.00;26.98;;;;;;;11.65;100.00;101386.47;5017383;28;20040;-45
2022/06/01 06:28:15;;;;;;;56.20;25.25;;;;;;;11.75;100.00;101389.88;5025208;28;20041;-47
2022/06/01 06:30:41;;;;;;;54.35;25.30;;;;;;;11.83;100.00;101393.59;5029808;28;20074;-45
2022/06/01 06:33:07;;;;;;;58.88;26.08;;;;;;;11.91;100.00;101391.91;5023201;28;20056;-47
2022/06/01 06:35:33;;;;;;;54.45;25.85;;;;;;;11.97;100.00;101390.41;5007651;28;20122;-44
2022/06/01 06:37:59;;;;;;;52.78;25.33;;;;;;;12.07;100.00;101393.00;5016002;28;20503;-45
2022/06/01 06:40:25;;;;;;;53.97;25.20;;;;;;;12.11;100.00;101392.50;5028388;28;20029;-44
2022/06/01 06:42:51;;;;;;;55.10;25.25;;;;;;;12.23;100.00;101401.09;5016905;28;20552;-45
2022/06/01 06:45:17;;;;;;;49.08;24.52;;;;;;;12.34;100.00;101401.84;5015611;28;20068;-43
2022/06/01 06:47:42;;;;;;;47.35;24.17;;;;;;;12.46;100.00;101405.94;5016492;28;20361;-44
2022/06/01 06:50:09;;;;;;;55.17;24.73;;;;;;;12.55;100.00;101409.50;5016551;28;20112;-43
2022/06/01 06:52:35;;;;;;;45.25;22.88;;;;;;;12.61;100.00;101407.03;5016621;28;20125;-43
2022/06/01 06:55:00;;;;;;;47.05;22.73;;;;;;;12.60;100.00;101416.03;5016148;28;20522;-44
2022/06/01 06:57:26;;;;;;;52.97;23.60;;;;;;;12.66;100.00;101414.56;5016646;28;21221;-46
2022/06/01 06:59:51;;;;;;;47.58;25.40;;;;;;;12.75;100.00;101423.50;5016342;28;20105;-44
2022/06/01 07:02:17;;;;;;;46.67;22.55;;;;;;;12.86;100.00;101417.81;5016404;28;20075;-48
2022/06/01 07:04:43;;;;;;;40.28;20.92;;;;;;;12.99;100.00;101415.53;5017361;28;20025;-43
2022/06/01 07:07:08;;;;;;;43.40;21.58;;;;;;;13.11;100.00;101412.56;5016962;28;20032;-45
2022/06/01 07:09:33;;;;;;;49.72;21.48;;;;;;;13.32;100.00;101426.34;5016695;28;20022;-45
2022/06/01 07:11:59;;;;;;;40.90;19.75;;;;;;;13.48;100.00;101416.69;5015983;28;20207;-44
2022/06/01 07:14:24;;;;;;;33.78;16.88;;;;;;;13.58;100.00;101426.25;5015986;28;20033;-46
2022/06/01 07:16:49;;;;;;;35.25;18.58;;;;;;;13.69;100.00;101429.59;5014795;28;20021;-46
2022/06/01 07:19:15;;;;;;;38.80;17.08;;;;;;;13.79;100.00;101419.53;5017132;28;20109;-44
2022/06/01 07:21:41;;;;;;;31.45;16.50;;;;;;;13.89;100.00;101419.38;5017594;28;20129;-47
2022/06/01 07:24:07;;;;;;;53.03;22.48;;;;;;;13.90;100.00;101418.34;5016033;28;20841;-44
2022/06/01 07:26:36;;;;;;;33.25;15.68;;;;;;;13.95;100.00;101421.34;5016609;28;20704;-47
2022/06/01 07:29:01;;;;;;;30.67;15.35;;;;;;;14.07;100.00;101417.34;5015819;28;20106;-44
2022/06/01 07:31:27;;;;;;;26.63;15.60;;;;;;;14.09;100.00;101419.84;5015889;28;20532;-45
2022/06/01 07:33:52;;;;;;;32.47;15.80;;;;;;;14.10;100.00;101418.81;5016380;28;20076;-48
2022/06/01 07:36:19;;;;;;;29.25;15.80;;;;;;;14.32;100.00;101428.03;5017267;28;20086;-46
2022/06/01 07:44:21;;;;;;;29.50;15.07;;;;;;;14.64;100.00;101423.59;5022878;28;20482;-45
2022/06/01 07:46:47;;;;;;;34.40;15.88;;;;;;;14.86;100.00;101424.69;5019489;28;20475;-44
2022/06/01 07:49:13;;;;;;;29.88;15.00;;;;;;;14.88;100.00;101422.66;5017903;28;20845;-44
2022/06/01 07:51:39;;;;;;;33.40;16.30;;;;;;;14.72;100.00;101423.56;5019558;28;20444;-46
2022/06/01 07:54:06;;;;;;;28.80;14.93;;;;;;;14.88;100.00;101420.81;5019695;28;20032;-47
2022/06/01 07:56:32;;;;;;;26.25;14.75;;;;;;;15.14;100.00;101427.75;5020291;28;20036;-48
2022/06/01 07:58:57;;;;;;;25.90;15.07;;;;;;;15.49;100.00;101420.09;5019130;28;20108;-47
2022/06/01 08:01:25;;;;;;;30.60;14.10;;;;;;;15.62;100.00;101431.09;5019393;28;20022;-47
2022/06/01 08:03:52;;;;;;;26.92;13.57;;;;;;;15.71;97.59;101428.34;5018677;28;20134;-46
2022/06/01 08:06:17;;;;;;;25.67;13.75;;;;;;;15.48;97.26;101424.66;5018987;28;20409;-45
2022/06/01 08:08:43;;;;;;;23.77;13.40;;;;;;;15.32;99.63;101424.75;5019935;28;20151;-46
2022/06/01 08:11:08;;;;;;;37.13;14.93;;;;;;;15.22;100.00;101425.00;5020043;28;20029;-45
2022/06/01 08:13:33;;;;;;;30.88;15.13;;;;;;;15.23;96.52;101417.75;5019883;28;20171;-44
2022/06/01 08:16:00;;;;;;;30.58;14.45;;;;;;;15.53;97.74;101423.25;5019251;28;20033;-45
2022/06/01 08:18:26;;;;;;;28.08;13.90;;;;;;;15.44;97.42;101426.03;5028188;28;20063;-47
2022/06/01 08:20:52;;;;;;;26.15;15.13;;;;;;;15.45;100.00;101432.25;5019429;28;20092;-45
2022/06/01 08:23:19;;;;;;;33.90;16.52;;;;;;;15.38;98.24;101431.31;5019304;28;20025;-43
2022/06/01 08:25:45;;;;;;;24.85;15.13;;;;;;;15.46;94.70;101426.69;5020137;28;20452;-46
2022/06/01 08:28:11;;;;;;;30.92;14.65;;;;;;;15.82;96.24;101425.28;5019881;28;20140;-45
2022/06/01 08:30:39;;;;;;;29.38;15.85;;;;;;;15.98;93.02;101427.81;5019345;28;20543;-44
2022/06/01 08:33:05;;;;;;;28.23;14.73;;;;;;;16.41;92.71;101421.81;5025522;28;20043;-43
2022/06/01 08:35:34;;;;;;;27.48;14.32;;;;;;;16.55;91.10;101425.56;5034792;28;20075;-44
2022/06/01 08:38:00;;;;;;;22.00;13.65;;;;;;;16.74;88.63;101424.16;5036995;28;20156;-44
2022/06/01 08:40:30;;;;;;;23.23;14.05;;;;;;;16.76;86.17;101422.91;5036103;28;20483;-46
2022/06/01 08:43:07;;;;;;;26.50;15.40;;;;;;;16.94;88.09;101429.81;5037619;28;20025;-46
2022/06/01 08:45:33;;;;;;;36.10;16.67;;;;;;;17.01;86.52;101417.25;5035521;28;20028;-46
2022/06/01 08:48:00;;;;;;;26.48;14.93;;;;;;;17.40;85.94;101415.19;5036433;28;20013;-43
2022/06/01 08:50:31;;;;;;;24.27;13.93;;;;;;;17.74;84.43;101411.75;5024016;28;20082;-45
2022/06/01 08:53:00;;;;;;;26.20;14.60;;;;;;;17.59;82.10;101419.94;5019285;28;20029;-46
2022/06/01 08:55:42;;;;;;;29.45;15.75;;;;;;;17.15;81.90;101426.31;5014026;28;20105;-45
2022/06/01 08:58:16;;;;;;;25.50;14.25;;;;;;;16.66;80.90;101421.53;5014511;28;20161;-43
2022/06/01 09:00:58;;;;;;;25.88;13.50;;;;;;;16.30;84.39;101428.50;5019240;28;20029;-46
2022/06/01 09:03:27;;;;;;;21.42;12.45;;;;;;;15.87;85.97;101425.56;5018678;28;20026;-45
2022/06/01 09:06:08;;;;;;;28.08;14.90;;;;;;;15.59;91.71;101430.63;5024364;28;20034;-45
2022/06/01 09:08:39;;;;;;;26.27;14.70;;;;;;;15.33;90.74;101434.53;5027491;28;20041;-43
2022/06/01 09:11:10;;;;;;;24.35;14.80;;;;;;;15.04;90.63;101438.72;5030616;28;20798;-49
2022/06/01 09:14:13;;;;;;;26.20;14.68;;;;;;;14.81;92.79;101433.25;5014219;28;20428;-43
2022/06/01 09:16:45;;;;;;;27.60;16.63;;;;;;;14.57;96.39;101444.09;5024540;28;20604;-45
2022/06/01 09:22:37;;;;;;;31.40;17.67;;;;;;;14.33;100.00;101470.84;5027416;28;20483;-43
2022/06/01 09:25:00;;;;;;;24.17;13.20;;;;;;;12.74;100.00;101480.78;5021139;28;20040;-48
2022/06/01 09:27:38;;;;;;;16.58;11.38;;;;;;;12.27;100.00;101485.50;5018578;28;20045;-46
2022/06/01 09:30:22;;;;;;;15.93;9.18;;;;;;;11.85;100.00;101471.94;5015631;28;20096;-44
2022/06/01 09:33:20;;;;;;;15.52;8.35;;;;;;;11.74;100.00;101460.47;5017560;28;20048;-46
2022/06/01 09:36:15;;;;;;;11.57;7.85;;;;;;;11.93;100.00;101459.47;5030347;28;20112;-46
2022/06/01 09:38:49;;;;;;;12.38;8.18;;;;;;;12.08;100.00;101459.78;5033971;28;20045;-44
2022/06/01 09:41:36;;;;;;;15.48;7.90;;;;;;;12.47;100.00;101471.91;5018914;28;20080;-45
2022/06/01 09:44:12;;;;;;;18.00;8.75;;;;;;;12.95;100.00;101467.81;5021545;28;20060;-45
2022/06/01 09:46:40;;;;;;;14.57;8.10;;;;;;;13.45;100.00;101468.81;5025498;28;20107;-45
2022/06/01 09:49:19;;;;;;;8.57;5.00;;;;;;;13.70;100.00;101466.19;5020022;28;20455;-44
2022/06/01 09:51:48;;;;;;;9.32;4.85;;;;;;;13.89;100.00;101467.69;5036641;28;20083;-45
2022/06/01 09:54:13;;;;;;;7.05;4.22;;;;;;;13.95;100.00;101465.19;5018763;28;20018;-42
2022/06/01 09:56:45;;;;;;;4.80;4.10;;;;;;;13.99;100.00;101463.00;5017572;28;20045;-47
2022/06/01 10:07:46;;;;;;;8.65;4.50;;;;;;;13.60;100.00;101485.13;5034882;28;20370;-44
2022/06/01 10:10:26;;;;;;;9.52;5.75;;;;;;;13.29;100.00;101485.69;5029607;28;20018;-44
2022/06/01 10:12:58;;;;;;;16.75;6.70;;;;;;;13.20;100.00;101497.38;5035056;28;20031;-44
2022/06/01 10:15:40;;;;;;;17.73;8.25;;;;;;;13.20;100.00;101508.97;5023508;28;20059;-45
2022/06/01 10:18:20;;;;;;;11.27;7.57;;;;;;;13.06;100.00;101502.34;5020953;28;20358;-46
2022/06/01 10:20:57;;;;;;;13.15;8.15;;;;;;;13.11;100.00;101503.72;5027972;28;20021;-44
2022/06/01 10:23:34;;;;;;;14.15;8.77;;;;;;;13.18;100.00;101500.22;5027306;28;20502;-44
2022/06/01 10:26:18;;;;;;;16.50;8.23;;;;;;;13.27;100.00;101501.09;5022452;28;20530;-47
2022/06/01 10:28:48;;;;;;;16.67;8.88;;;;;;;13.30;100.00;101494.56;5009207;28;20044;-44
2022/06/01 10:31:38;;;;;;;13.77;8.07;;;;;;;13.47;100.00;101516.94;5035792;28;20123;-47
2022/06/01 10:34:20;;;;;;;11.68;7.30;;;;;;;13.48;100.00;101518.66;5025273;28;20059;-46
2022/06/01 10:36:49;;;;;;;9.68;6.95;;;;;;;13.48;100.00;101514.09;5016477;28;20337;-45
2022/06/01 10:39:20;;;;;;;9.73;7.55;;;;;;;13.65;100.00;101524.91;5032628;28;20468;-44
2022/06/01 10:41:56;;;;;;;12.00;7.57;;;;;;;13.75;100.00;101525.59;5017602;28;20093;-44
2022/06/01 10:44:29;;;;;;;17.67;9.98;;;;;;;13.87;100.00;101524.25;5016656;28;20072;-47
2022/06/01 10:47:03;;;;;;;17.55;10.68;;;;;;;14.39;100.00;101514.16;5017148;28;20087;-45
2022/06/01 10:50:09;;;;;;;15.88;10.35;;;;;;;14.64;100.00;101513.13;5017545;28;20492;-48
2022/06/01 10:52:59;;;;;;;14.57;9.48;;;;;;;14.62;100.00;101506.28;5015565;28;20115;-43
2022/06/01 10:55:43;;;;;;;16.85;10.45;;;;;;;14.59;100.00;101502.06;5016960;28;20025;-47
2022/06/01 10:58:15;;;;;;;19.08;10.48;;;;;;;14.72;100.00;101502.38;5012147;28;20529;-45
2022/06/01 11:00:50;;;;;;;17.42;11.30;;;;;;;15.24;100.00;101506.38;5017649;28;20649;-49
2022/06/01 11:03:15;;;;;;;17.20;10.20;;;;;;;15.48;98.65;101504.59;5017230;28;20025;-45
2022/06/01 11:05:51;;;;;;;13.63;9.10;;;;;;;15.83;95.02;101495.13;5017929;28;20036;-45
2022/06/01 11:08:25;;;;;;;17.65;10.90;;;;;;;16.25;100.00;101497.47;5017438;28;20741;-49
2022/06/01 11:11:09;;;;;;;17.40;11.18;;;;;;;16.45;96.67;101506.72;5016119;28;20333;-44
2022/06/01 11:14:00;;;;;;;17.92;11.45;;;;;;;16.37;92.23;101502.22;5016662;28;20741;-49
2022/06/01 11:16:44;;;;;;;;;;;;;;;16.17;93.11;101511.84;5019288;28;20043;-45
2022/06/01 11:19:33;;;;;;;22.67;11.98;;;;;;;15.80;93.11;101517.03;5035206;28;20743;-46
2022/06/01 11:22:24;;;;;;;22.20;13.07;;;;;;;15.79;99.41;101504.56;5035461;28;20040;-46
2022/06/01 11:25:15;;;;;;;19.55;12.98;;;;;;;15.95;99.73;101505.47;5037683;28;20037;-47
2022/06/01 11:27:41;;;;;;;21.00;12.43;;;;;;;15.80;96.62;101508.09;5015940;28;20388;-44
2022/06/01 11:30:25;;;;;;;20.85;12.18;;;;;;;15.84;96.64;101504.03;5020441;28;20021;-46
2022/06/01 11:32:59;;;;;;;20.00;11.90;;;;;;;15.89;96.05;101498.13;5007063;28;20042;-45
2022/06/01 11:35:39;;;;;;;18.02;11.70;;;;;;;16.13;96.95;101499.78;5019020;28;20455;-44
2022/06/01 11:38:25;;;;;;;20.52;11.98;;;;;;;16.29;94.16;101504.16;5020890;28;20557;-46
2022/06/01 11:40:57;;;;;;;19.63;10.50;;;;;;;16.35;89.32;101498.88;5007943;28;20021;-45
2022/06/01 11:43:27;;;;;;;;;;;;;;;16.85;93.22;101498.38;5020749;28;20037;-47
2022/06/01 11:46:15;;;;;;;14.40;9.43;;;;;;;17.17;85.75;101499.84;5024231;28;19923;-45